sensor_id;sensor_type;location;lat;lon;timestamp;temperature;humidity
80931;DHT22;70388;42.698;23.324;2024-01-16T00:01:43;5.20;73.20
80931;DHT22;70388;42.698;23.324;2024-01-16T00:04:09;5.20;73.10
80931;DHT22;70388;42.698;23.324;2024-01-16T00:06:42;5.20;72.90
80931;DHT22;70388;42.698;23.324;2024-01-16T00:09:09;5.30;72.20
80931;DHT22;70388;42.698;23.324;2024-01-16T00:11:41;5.20;72.60
80931;DHT22;70388;42.698;23.324;2024-01-16T00:14:07;5.30;72.60
80931;DHT22;70388;42.698;23.324;2024-01-16T00:16:33;5.50;71.60
80931;DHT22;70388;42.698;23.324;2024-01-16T00:18:58;5.50;71.40
80931;DHT22;70388;42.698;23.324;2024-01-16T00:21:24;5.20;72.50
80931;DHT22;70388;42.698;23.324;2024-01-16T00:23:50;5.10;73.00
80931;DHT22;70388;42.698;23.324;2024-01-16T00:26:22;5.30;72.30
80931;DHT22;70388;42.698;23.324;2024-01-16T00:28:48;5.40;72.10
80931;DHT22;70388;42.698;23.324;2024-01-16T00:31:14;5.30;72.20
80931;DHT22;70388;42.698;23.324;2024-01-16T00:33:40;5.30;72.70
80931;DHT22;70388;42.698;23.324;2024-01-16T00:36:06;5.40;72.50
80931;DHT22;70388;42.698;23.324;2024-01-16T00:38:35;5.50;72.40
80931;DHT22;70388;42.698;23.324;2024-01-16T00:41:01;5.50;72.40
80931;DHT22;70388;42.698;23.324;2024-01-16T00:43:27;5.50;72.60
80931;DHT22;70388;42.698;23.324;2024-01-16T00:45:52;5.50;72.80
80931;DHT22;70388;42.698;23.324;2024-01-16T00:48:18;5.60;73.40
80931;DHT22;70388;42.698;23.324;2024-01-16T00:50:46;5.60;73.50
80931;DHT22;70388;42.698;23.324;2024-01-16T00:53:14;5.60;73.80
80931;DHT22;70388;42.698;23.324;2024-01-16T00:55:39;5.70;74.00
80931;DHT22;70388;42.698;23.324;2024-01-16T00:58:05;5.20;75.70
80931;DHT22;70388;42.698;23.324;2024-01-16T01:00:31;5.00;77.20
80931;DHT22;70388;42.698;23.324;2024-01-16T01:02:57;5.00;77.90
80931;DHT22;70388;42.698;23.324;2024-01-16T01:05:24;4.80;78.80
80931;DHT22;70388;42.698;23.324;2024-01-16T01:07:57;5.10;78.90
80931;DHT22;70388;42.698;23.324;2024-01-16T01:10:23;4.90;79.60
80931;DHT22;70388;42.698;23.324;2024-01-16T01:12:49;4.80;80.70
80931;DHT22;70388;42.698;23.324;2024-01-16T01:15:17;4.70;81.10
80931;DHT22;70388;42.698;23.324;2024-01-16T01:17:43;4.70;82.60
80931;DHT22;70388;42.698;23.324;2024-01-16T01:20:09;4.60;82.60
80931;DHT22;70388;42.698;23.324;2024-01-16T01:22:37;4.60;82.60
80931;DHT22;70388;42.698;23.324;2024-01-16T01:25:04;4.50;82.30
80931;DHT22;70388;42.698;23.324;2024-01-16T01:27:29;4.40;82.80
80931;DHT22;70388;42.698;23.324;2024-01-16T01:29:55;4.40;82.20
80931;DHT22;70388;42.698;23.324;2024-01-16T01:32:21;4.40;82.30
80931;DHT22;70388;42.698;23.324;2024-01-16T01:34:47;4.40;82.60
80931;DHT22;70388;42.698;23.324;2024-01-16T01:37:13;4.50;82.10
80931;DHT22;70388;42.698;23.324;2024-01-16T01:39:40;4.50;81.20
80931;DHT22;70388;42.698;23.324;2024-01-16T01:42:05;4.80;80.90
80931;DHT22;70388;42.698;23.324;2024-01-16T01:44:31;5.10;79.30
80931;DHT22;70388;42.698;23.324;2024-01-16T01:46:57;5.20;77.60
80931;DHT22;70388;42.698;23.324;2024-01-16T01:49:25;4.80;77.70
80931;DHT22;70388;42.698;23.324;2024-01-16T01:51:51;4.90;78.30
80931;DHT22;70388;42.698;23.324;2024-01-16T01:54:18;5.10;77.40
80931;DHT22;70388;42.698;23.324;2024-01-16T01:56:46;5.30;76.40
80931;DHT22;70388;42.698;23.324;2024-01-16T01:59:14;5.10;77.00
80931;DHT22;70388;42.698;23.324;2024-01-16T02:01:41;5.20;76.70
80931;DHT22;70388;42.698;23.324;2024-01-16T02:04:08;5.30;76.30
80931;DHT22;70388;42.698;23.324;2024-01-16T02:06:35;5.50;75.60
80931;DHT22;70388;42.698;23.324;2024-01-16T02:09:01;5.30;75.70
80931;DHT22;70388;42.698;23.324;2024-01-16T02:11:27;5.30;76.20
80931;DHT22;70388;42.698;23.324;2024-01-16T02:13:52;5.40;75.60
80931;DHT22;70388;42.698;23.324;2024-01-16T02:16:22;5.50;75.40
80931;DHT22;70388;42.698;23.324;2024-01-16T02:18:50;5.10;76.10
80931;DHT22;70388;42.698;23.324;2024-01-16T02:21:25;4.90;77.50
80931;DHT22;70388;42.698;23.324;2024-01-16T02:23:53;5.00;77.50
80931;DHT22;70388;42.698;23.324;2024-01-16T02:26:19;5.20;76.80
80931;DHT22;70388;42.698;23.324;2024-01-16T02:28:45;5.10;76.50
80931;DHT22;70388;42.698;23.324;2024-01-16T02:31:11;5.20;76.70
80931;DHT22;70388;42.698;23.324;2024-01-16T02:33:37;5.50;77.00
80931;DHT22;70388;42.698;23.324;2024-01-16T02:36:03;5.40;75.50
80931;DHT22;70388;42.698;23.324;2024-01-16T02:38:29;5.50;75.70
80931;DHT22;70388;42.698;23.324;2024-01-16T02:40:55;5.60;75.30
80931;DHT22;70388;42.698;23.324;2024-01-16T02:43:21;5.80;74.70
80931;DHT22;70388;42.698;23.324;2024-01-16T02:45:47;5.90;74.00
80931;DHT22;70388;42.698;23.324;2024-01-16T02:48:13;6.00;73.60
80931;DHT22;70388;42.698;23.324;2024-01-16T02:50:39;6.00;73.50
80931;DHT22;70388;42.698;23.324;2024-01-16T02:53:04;5.90;74.20
80931;DHT22;70388;42.698;23.324;2024-01-16T02:55:30;5.90;74.50
80931;DHT22;70388;42.698;23.324;2024-01-16T02:57:56;5.80;75.10
80931;DHT22;70388;42.698;23.324;2024-01-16T03:00:22;5.80;75.20
80931;DHT22;70388;42.698;23.324;2024-01-16T03:02:48;5.90;75.30
80931;DHT22;70388;42.698;23.324;2024-01-16T03:05:14;6.00;76.50
80931;DHT22;70388;42.698;23.324;2024-01-16T03:07:41;6.00;75.70
80931;DHT22;70388;42.698;23.324;2024-01-16T03:10:07;6.10;76.00
80931;DHT22;70388;42.698;23.324;2024-01-16T03:12:33;6.00;76.70
80931;DHT22;70388;42.698;23.324;2024-01-16T03:14:58;5.90;84.50
80931;DHT22;70388;42.698;23.324;2024-01-16T03:17:24;6.00;87.00
80931;DHT22;70388;42.698;23.324;2024-01-16T03:19:50;6.10;88.80
80931;DHT22;70388;42.698;23.324;2024-01-16T03:22:16;6.00;90.50
80931;DHT22;70388;42.698;23.324;2024-01-16T03:24:41;6.00;90.80
80931;DHT22;70388;42.698;23.324;2024-01-16T03:27:07;5.80;91.30
80931;DHT22;70388;42.698;23.324;2024-01-16T03:29:33;5.80;91.40
80931;DHT22;70388;42.698;23.324;2024-01-16T03:31:59;5.60;91.60
80931;DHT22;70388;42.698;23.324;2024-01-16T03:34:26;5.50;91.70
80931;DHT22;70388;42.698;23.324;2024-01-16T03:36:52;5.40;92.00
80931;DHT22;70388;42.698;23.324;2024-01-16T03:39:18;5.40;92.00
80931;DHT22;70388;42.698;23.324;2024-01-16T03:41:44;5.40;91.90
80931;DHT22;70388;42.698;23.324;2024-01-16T03:44:10;5.40;91.80
80931;DHT22;70388;42.698;23.324;2024-01-16T03:46:35;5.20;91.90
80931;DHT22;70388;42.698;23.324;2024-01-16T03:49:01;5.00;92.40
80931;DHT22;70388;42.698;23.324;2024-01-16T03:51:27;4.90;92.40
80931;DHT22;70388;42.698;23.324;2024-01-16T03:53:52;5.00;92.30
80931;DHT22;70388;42.698;23.324;2024-01-16T03:56:18;5.00;91.60
80931;DHT22;70388;42.698;23.324;2024-01-16T03:58:44;5.00;91.30
80931;DHT22;70388;42.698;23.324;2024-01-16T04:01:10;5.00;91.00
80931;DHT22;70388;42.698;23.324;2024-01-16T04:03:35;4.90;90.70
80931;DHT22;70388;42.698;23.324;2024-01-16T04:06:01;4.80;90.80
80931;DHT22;70388;42.698;23.324;2024-01-16T04:08:27;4.70;90.90
80931;DHT22;70388;42.698;23.324;2024-01-16T04:10:53;4.60;91.10
80931;DHT22;70388;42.698;23.324;2024-01-16T04:13:18;4.50;91.30
80931;DHT22;70388;42.698;23.324;2024-01-16T04:15:44;4.60;91.20
80931;DHT22;70388;42.698;23.324;2024-01-16T04:18:10;4.50;91.00
80931;DHT22;70388;42.698;23.324;2024-01-16T04:20:36;4.50;90.80
80931;DHT22;70388;42.698;23.324;2024-01-16T04:23:03;4.50;90.50
80931;DHT22;70388;42.698;23.324;2024-01-16T04:25:29;4.40;90.20
80931;DHT22;70388;42.698;23.324;2024-01-16T04:27:54;4.50;89.60
80931;DHT22;70388;42.698;23.324;2024-01-16T04:30:20;4.40;89.50
80931;DHT22;70388;42.698;23.324;2024-01-16T04:32:46;4.40;89.10
80931;DHT22;70388;42.698;23.324;2024-01-16T04:35:12;4.40;89.20
80931;DHT22;70388;42.698;23.324;2024-01-16T04:37:38;4.40;88.90
80931;DHT22;70388;42.698;23.324;2024-01-16T04:40:04;4.40;87.60
80931;DHT22;70388;42.698;23.324;2024-01-16T04:42:31;4.50;86.30
80931;DHT22;70388;42.698;23.324;2024-01-16T04:44:57;4.40;86.10
80931;DHT22;70388;42.698;23.324;2024-01-16T04:47:23;4.30;87.30
80931;DHT22;70388;42.698;23.324;2024-01-16T04:49:49;4.20;86.90
80931;DHT22;70388;42.698;23.324;2024-01-16T04:52:15;4.30;86.90
80931;DHT22;70388;42.698;23.324;2024-01-16T04:54:41;4.20;87.00
80931;DHT22;70388;42.698;23.324;2024-01-16T04:57:06;4.20;87.00
80931;DHT22;70388;42.698;23.324;2024-01-16T04:59:32;4.20;86.80
80931;DHT22;70388;42.698;23.324;2024-01-16T05:01:58;4.20;86.40
80931;DHT22;70388;42.698;23.324;2024-01-16T05:04:24;4.20;86.10
80931;DHT22;70388;42.698;23.324;2024-01-16T05:06:51;4.20;85.70
80931;DHT22;70388;42.698;23.324;2024-01-16T05:09:18;4.20;85.30
80931;DHT22;70388;42.698;23.324;2024-01-16T05:11:45;4.20;85.30
80931;DHT22;70388;42.698;23.324;2024-01-16T05:14:11;4.20;85.10
80931;DHT22;70388;42.698;23.324;2024-01-16T05:16:37;4.20;84.60
80931;DHT22;70388;42.698;23.324;2024-01-16T05:19:02;4.20;84.20
80931;DHT22;70388;42.698;23.324;2024-01-16T05:21:28;4.10;83.90
80931;DHT22;70388;42.698;23.324;2024-01-16T05:23:54;4.10;84.30
80931;DHT22;70388;42.698;23.324;2024-01-16T05:26:20;4.00;84.50
80931;DHT22;70388;42.698;23.324;2024-01-16T05:28:45;4.10;84.40
80931;DHT22;70388;42.698;23.324;2024-01-16T05:31:11;4.00;84.50
80931;DHT22;70388;42.698;23.324;2024-01-16T05:33:37;4.10;84.30
80931;DHT22;70388;42.698;23.324;2024-01-16T05:36:03;4.10;84.10
80931;DHT22;70388;42.698;23.324;2024-01-16T05:38:29;4.20;83.70
80931;DHT22;70388;42.698;23.324;2024-01-16T05:40:54;4.30;82.70
80931;DHT22;70388;42.698;23.324;2024-01-16T05:43:20;4.40;81.80
80931;DHT22;70388;42.698;23.324;2024-01-16T05:45:46;4.30;81.20
80931;DHT22;70388;42.698;23.324;2024-01-16T05:48:12;4.20;81.30
80931;DHT22;70388;42.698;23.324;2024-01-16T05:50:38;4.20;80.80
80931;DHT22;70388;42.698;23.324;2024-01-16T05:53:03;4.10;80.20
80931;DHT22;70388;42.698;23.324;2024-01-16T05:55:29;4.00;80.70
80931;DHT22;70388;42.698;23.324;2024-01-16T05:57:58;4.00;81.00
80931;DHT22;70388;42.698;23.324;2024-01-16T06:00:26;4.00;80.70
80931;DHT22;70388;42.698;23.324;2024-01-16T06:02:52;4.10;80.50
80931;DHT22;70388;42.698;23.324;2024-01-16T06:05:18;4.00;81.70
80931;DHT22;70388;42.698;23.324;2024-01-16T06:07:43;3.90;81.10
80931;DHT22;70388;42.698;23.324;2024-01-16T06:10:12;4.00;80.90
80931;DHT22;70388;42.698;23.324;2024-01-16T06:12:38;4.00;80.50
80931;DHT22;70388;42.698;23.324;2024-01-16T06:15:04;4.10;80.30
80931;DHT22;70388;42.698;23.324;2024-01-16T06:17:29;4.10;79.80
80931;DHT22;70388;42.698;23.324;2024-01-16T06:19:55;4.10;79.50
80931;DHT22;70388;42.698;23.324;2024-01-16T06:22:21;4.10;79.40
80931;DHT22;70388;42.698;23.324;2024-01-16T06:24:47;4.00;79.10
80931;DHT22;70388;42.698;23.324;2024-01-16T06:27:13;4.00;78.80
80931;DHT22;70388;42.698;23.324;2024-01-16T06:29:45;4.00;78.50
80931;DHT22;70388;42.698;23.324;2024-01-16T06:32:11;4.00;78.30
80931;DHT22;70388;42.698;23.324;2024-01-16T06:34:36;3.90;78.50
80931;DHT22;70388;42.698;23.324;2024-01-16T06:37:02;3.70;79.70
80931;DHT22;70388;42.698;23.324;2024-01-16T06:39:28;3.70;79.10
80931;DHT22;70388;42.698;23.324;2024-01-16T06:41:54;3.70;79.00
80931;DHT22;70388;42.698;23.324;2024-01-16T06:44:19;3.80;79.20
80931;DHT22;70388;42.698;23.324;2024-01-16T06:46:45;3.60;79.20
80931;DHT22;70388;42.698;23.324;2024-01-16T06:49:11;3.60;79.80
80931;DHT22;70388;42.698;23.324;2024-01-16T06:51:37;3.70;79.60
80931;DHT22;70388;42.698;23.324;2024-01-16T06:54:03;3.70;79.20
80931;DHT22;70388;42.698;23.324;2024-01-16T06:56:29;3.70;79.00
80931;DHT22;70388;42.698;23.324;2024-01-16T06:58:55;3.80;78.70
80931;DHT22;70388;42.698;23.324;2024-01-16T07:01:21;3.80;78.50
80931;DHT22;70388;42.698;23.324;2024-01-16T07:03:47;3.70;78.90
80931;DHT22;70388;42.698;23.324;2024-01-16T07:06:13;3.80;79.20
80931;DHT22;70388;42.698;23.324;2024-01-16T07:08:39;3.80;78.80
80931;DHT22;70388;42.698;23.324;2024-01-16T07:11:05;3.80;78.10
80931;DHT22;70388;42.698;23.324;2024-01-16T07:13:33;3.80;78.50
80931;DHT22;70388;42.698;23.324;2024-01-16T07:16:00;3.90;78.00
80931;DHT22;70388;42.698;23.324;2024-01-16T07:18:27;4.00;77.70
80931;DHT22;70388;42.698;23.324;2024-01-16T07:20:53;4.10;77.40
80931;DHT22;70388;42.698;23.324;2024-01-16T07:23:19;4.10;77.10
80931;DHT22;70388;42.698;23.324;2024-01-16T07:25:45;4.10;77.30
80931;DHT22;70388;42.698;23.324;2024-01-16T07:28:11;4.10;77.30
80931;DHT22;70388;42.698;23.324;2024-01-16T07:30:37;4.00;77.50
80931;DHT22;70388;42.698;23.324;2024-01-16T07:33:03;4.00;77.50
80931;DHT22;70388;42.698;23.324;2024-01-16T07:35:29;3.90;77.90
80931;DHT22;70388;42.698;23.324;2024-01-16T07:37:55;3.80;78.50
80931;DHT22;70388;42.698;23.324;2024-01-16T07:40:21;3.80;78.60
80931;DHT22;70388;42.698;23.324;2024-01-16T07:42:47;3.80;78.80
80931;DHT22;70388;42.698;23.324;2024-01-16T07:45:13;3.80;77.90
80931;DHT22;70388;42.698;23.324;2024-01-16T07:47:39;3.70;78.00
80931;DHT22;70388;42.698;23.324;2024-01-16T07:50:05;3.70;78.50
80931;DHT22;70388;42.698;23.324;2024-01-16T07:52:32;3.70;78.60
80931;DHT22;70388;42.698;23.324;2024-01-16T07:54:57;3.80;78.70
80931;DHT22;70388;42.698;23.324;2024-01-16T07:57:23;3.80;78.20
80931;DHT22;70388;42.698;23.324;2024-01-16T07:59:49;3.90;78.20
80931;DHT22;70388;42.698;23.324;2024-01-16T08:02:15;3.90;77.80
80931;DHT22;70388;42.698;23.324;2024-01-16T08:04:40;4.00;77.00
80931;DHT22;70388;42.698;23.324;2024-01-16T08:07:07;4.00;76.50
80931;DHT22;70388;42.698;23.324;2024-01-16T08:09:32;4.10;76.10
80931;DHT22;70388;42.698;23.324;2024-01-16T08:11:58;4.00;76.20
80931;DHT22;70388;42.698;23.324;2024-01-16T08:14:24;4.00;75.70
80931;DHT22;70388;42.698;23.324;2024-01-16T08:16:51;3.90;75.60
80931;DHT22;70388;42.698;23.324;2024-01-16T08:19:16;3.90;75.60
80931;DHT22;70388;42.698;23.324;2024-01-16T08:21:42;3.80;75.40
80931;DHT22;70388;42.698;23.324;2024-01-16T08:24:08;3.80;75.20
80931;DHT22;70388;42.698;23.324;2024-01-16T08:26:34;3.90;74.60
80931;DHT22;70388;42.698;23.324;2024-01-16T08:28:59;4.00;74.40
80931;DHT22;70388;42.698;23.324;2024-01-16T08:31:25;3.90;74.70
80931;DHT22;70388;42.698;23.324;2024-01-16T08:33:51;3.90;74.50
80931;DHT22;70388;42.698;23.324;2024-01-16T08:36:17;3.80;74.40
80931;DHT22;70388;42.698;23.324;2024-01-16T08:38:43;3.90;74.30
80931;DHT22;70388;42.698;23.324;2024-01-16T08:41:09;4.00;73.80
80931;DHT22;70388;42.698;23.324;2024-01-16T08:43:34;3.90;74.20
80931;DHT22;70388;42.698;23.324;2024-01-16T08:46:00;3.80;74.30
80931;DHT22;70388;42.698;23.324;2024-01-16T08:48:26;3.90;74.30
80931;DHT22;70388;42.698;23.324;2024-01-16T08:50:52;4.00;74.30
80931;DHT22;70388;42.698;23.324;2024-01-16T08:53:20;4.10;73.70
80931;DHT22;70388;42.698;23.324;2024-01-16T08:55:48;4.10;73.30
80931;DHT22;70388;42.698;23.324;2024-01-16T08:58:14;4.10;73.60
80931;DHT22;70388;42.698;23.324;2024-01-16T09:00:40;4.10;73.80
80931;DHT22;70388;42.698;23.324;2024-01-16T09:03:06;4.10;73.70
80931;DHT22;70388;42.698;23.324;2024-01-16T09:05:33;4.20;73.20
80931;DHT22;70388;42.698;23.324;2024-01-16T09:08:02;4.20;72.30
80931;DHT22;70388;42.698;23.324;2024-01-16T09:10:28;4.20;72.60
80931;DHT22;70388;42.698;23.324;2024-01-16T09:12:55;4.30;72.20
80931;DHT22;70388;42.698;23.324;2024-01-16T09:15:21;4.30;71.60
80931;DHT22;70388;42.698;23.324;2024-01-16T09:17:46;4.40;71.40
80931;DHT22;70388;42.698;23.324;2024-01-16T09:20:12;4.50;70.60
80931;DHT22;70388;42.698;23.324;2024-01-16T09:22:38;4.50;71.10
80931;DHT22;70388;42.698;23.324;2024-01-16T09:25:04;4.50;70.90
80931;DHT22;70388;42.698;23.324;2024-01-16T09:27:33;4.50;70.60
80931;DHT22;70388;42.698;23.324;2024-01-16T09:30:01;4.70;70.20
80931;DHT22;70388;42.698;23.324;2024-01-16T09:32:27;4.50;70.20
80931;DHT22;70388;42.698;23.324;2024-01-16T09:34:53;4.40;70.60
80931;DHT22;70388;42.698;23.324;2024-01-16T09:37:19;4.50;70.70
80931;DHT22;70388;42.698;23.324;2024-01-16T09:39:45;4.60;69.90
80931;DHT22;70388;42.698;23.324;2024-01-16T09:42:11;4.80;69.30
80931;DHT22;70388;42.698;23.324;2024-01-16T09:44:37;4.70;69.40
80931;DHT22;70388;42.698;23.324;2024-01-16T09:47:03;4.60;69.90
80931;DHT22;70388;42.698;23.324;2024-01-16T09:49:30;4.80;69.20
80931;DHT22;70388;42.698;23.324;2024-01-16T09:51:56;5.10;68.30
80931;DHT22;70388;42.698;23.324;2024-01-16T09:54:24;5.30;67.40
80931;DHT22;70388;42.698;23.324;2024-01-16T09:56:53;5.40;66.60
80931;DHT22;70388;42.698;23.324;2024-01-16T09:59:24;5.50;65.90
80931;DHT22;70388;42.698;23.324;2024-01-16T10:01:51;5.20;66.30
80931;DHT22;70388;42.698;23.324;2024-01-16T10:04:18;5.10;66.90
80931;DHT22;70388;42.698;23.324;2024-01-16T10:06:45;5.10;67.30
80931;DHT22;70388;42.698;23.324;2024-01-16T10:09:15;5.20;66.30
80931;DHT22;70388;42.698;23.324;2024-01-16T10:11:42;5.30;66.40
80931;DHT22;70388;42.698;23.324;2024-01-16T10:14:08;5.10;66.20
80931;DHT22;70388;42.698;23.324;2024-01-16T10:16:56;5.20;65.80
80931;DHT22;70388;42.698;23.324;2024-01-16T10:19:31;5.20;65.80
80931;DHT22;70388;42.698;23.324;2024-01-16T10:22:04;5.30;64.80
80931;DHT22;70388;42.698;23.324;2024-01-16T10:24:30;5.40;64.40
80931;DHT22;70388;42.698;23.324;2024-01-16T10:27:00;5.60;64.40
80931;DHT22;70388;42.698;23.324;2024-01-16T10:29:26;5.60;63.60
80931;DHT22;70388;42.698;23.324;2024-01-16T10:31:52;5.60;63.20
80931;DHT22;70388;42.698;23.324;2024-01-16T10:34:22;5.50;63.80
80931;DHT22;70388;42.698;23.324;2024-01-16T10:36:50;5.50;64.10
80931;DHT22;70388;42.698;23.324;2024-01-16T10:39:18;5.40;63.60
80931;DHT22;70388;42.698;23.324;2024-01-16T10:42:04;5.40;64.10
80931;DHT22;70388;42.698;23.324;2024-01-16T10:44:30;5.70;63.90
80931;DHT22;70388;42.698;23.324;2024-01-16T10:47:10;5.80;63.60
80931;DHT22;70388;42.698;23.324;2024-01-16T10:49:39;6.00;62.90
80931;DHT22;70388;42.698;23.324;2024-01-16T10:52:09;6.30;62.40
80931;DHT22;70388;42.698;23.324;2024-01-16T10:54:39;6.30;61.90
80931;DHT22;70388;42.698;23.324;2024-01-16T10:57:06;6.10;62.00
80931;DHT22;70388;42.698;23.324;2024-01-16T10:59:57;6.00;62.60
80931;DHT22;70388;42.698;23.324;2024-01-16T11:02:32;6.20;61.90
80931;DHT22;70388;42.698;23.324;2024-01-16T11:05:02;6.20;62.30
80931;DHT22;70388;42.698;23.324;2024-01-16T11:07:30;6.10;62.40
80931;DHT22;70388;42.698;23.324;2024-01-16T11:09:56;6.10;62.40
80931;DHT22;70388;42.698;23.324;2024-01-16T11:12:23;6.10;62.60
80931;DHT22;70388;42.698;23.324;2024-01-16T11:14:52;6.30;61.90
80931;DHT22;70388;42.698;23.324;2024-01-16T11:17:19;6.00;61.70
80931;DHT22;70388;42.698;23.324;2024-01-16T11:19:47;6.00;61.50
80931;DHT22;70388;42.698;23.324;2024-01-16T11:22:14;6.00;61.20
80931;DHT22;70388;42.698;23.324;2024-01-16T11:24:41;6.00;61.00
80931;DHT22;70388;42.698;23.324;2024-01-16T11:27:08;6.10;60.90
80931;DHT22;70388;42.698;23.324;2024-01-16T11:29:34;6.10;61.10
80931;DHT22;70388;42.698;23.324;2024-01-16T11:32:01;6.20;60.80
80931;DHT22;70388;42.698;23.324;2024-01-16T11:37:08;6.00;61.20
80931;DHT22;70388;42.698;23.324;2024-01-16T11:39:35;5.80;61.70
80931;DHT22;70388;42.698;23.324;2024-01-16T11:42:01;5.70;62.10
80931;DHT22;70388;42.698;23.324;2024-01-16T11:47:05;5.70;62.90
80931;DHT22;70388;42.698;23.324;2024-01-16T11:49:31;5.80;62.90
80931;DHT22;70388;42.698;23.324;2024-01-16T11:51:59;5.50;63.50
80931;DHT22;70388;42.698;23.324;2024-01-16T11:54:25;5.50;63.80
80931;DHT22;70388;42.698;23.324;2024-01-16T12:02:45;5.30;63.30
80931;DHT22;70388;42.698;23.324;2024-01-16T12:05:13;5.10;64.00
80931;DHT22;70388;42.698;23.324;2024-01-16T12:07:46;5.20;64.30
80931;DHT22;70388;42.698;23.324;2024-01-16T12:10:15;5.00;65.30
80931;DHT22;70388;42.698;23.324;2024-01-16T12:12:41;5.00;66.30
80931;DHT22;70388;42.698;23.324;2024-01-16T12:15:16;5.10;66.20
80931;DHT22;70388;42.698;23.324;2024-01-16T12:17:53;5.10;66.10
80931;DHT22;70388;42.698;23.324;2024-01-16T12:20:20;5.00;66.30
80931;DHT22;70388;42.698;23.324;2024-01-16T12:22:56;5.00;66.20
80931;DHT22;70388;42.698;23.324;2024-01-16T12:25:23;4.80;66.30
80931;DHT22;70388;42.698;23.324;2024-01-16T12:30:26;4.80;66.90
80931;DHT22;70388;42.698;23.324;2024-01-16T12:33:14;4.90;66.40
80931;DHT22;70388;42.698;23.324;2024-01-16T12:35:41;4.80;66.80
80931;DHT22;70388;42.698;23.324;2024-01-16T12:38:10;4.90;66.90
80931;DHT22;70388;42.698;23.324;2024-01-16T12:40:41;5.00;66.50
80931;DHT22;70388;42.698;23.324;2024-01-16T12:43:08;5.00;65.20
80931;DHT22;70388;42.698;23.324;2024-01-16T12:45:35;4.90;64.60
80931;DHT22;70388;42.698;23.324;2024-01-16T12:48:01;4.80;65.20
80931;DHT22;70388;42.698;23.324;2024-01-16T12:50:29;4.70;66.20
80931;DHT22;70388;42.698;23.324;2024-01-16T12:53:09;4.80;66.40
80931;DHT22;70388;42.698;23.324;2024-01-16T12:55:37;4.80;66.10
80931;DHT22;70388;42.698;23.324;2024-01-16T12:58:22;4.90;66.00
80931;DHT22;70388;42.698;23.324;2024-01-16T13:00:54;5.00;65.50
80931;DHT22;70388;42.698;23.324;2024-01-16T13:03:24;5.10;65.30
80931;DHT22;70388;42.698;23.324;2024-01-16T13:05:56;4.90;66.00
80931;DHT22;70388;42.698;23.324;2024-01-16T13:08:22;5.10;65.80
80931;DHT22;70388;42.698;23.324;2024-01-16T13:11:06;5.30;65.30
80931;DHT22;70388;42.698;23.324;2024-01-16T13:13:32;5.20;65.00
80931;DHT22;70388;42.698;23.324;2024-01-16T13:15:59;5.30;65.20
80931;DHT22;70388;42.698;23.324;2024-01-16T13:18:27;5.10;65.30
80931;DHT22;70388;42.698;23.324;2024-01-16T13:20:54;5.20;65.50
80931;DHT22;70388;42.698;23.324;2024-01-16T13:23:21;5.20;64.90
80931;DHT22;70388;42.698;23.324;2024-01-16T13:25:48;5.10;64.70
80931;DHT22;70388;42.698;23.324;2024-01-16T13:28:15;4.80;65.00
80931;DHT22;70388;42.698;23.324;2024-01-16T13:30:41;4.80;65.30
80931;DHT22;70388;42.698;23.324;2024-01-16T13:33:07;4.80;65.10
80931;DHT22;70388;42.698;23.324;2024-01-16T13:35:41;4.80;65.10
80931;DHT22;70388;42.698;23.324;2024-01-16T13:38:08;4.80;65.20
80931;DHT22;70388;42.698;23.324;2024-01-16T13:40:35;4.80;65.10
80931;DHT22;70388;42.698;23.324;2024-01-16T13:43:01;4.90;65.00
80931;DHT22;70388;42.698;23.324;2024-01-16T13:45:27;4.90;64.90
80931;DHT22;70388;42.698;23.324;2024-01-16T13:47:56;4.90;65.30
80931;DHT22;70388;42.698;23.324;2024-01-16T13:50:22;4.90;65.50
80931;DHT22;70388;42.698;23.324;2024-01-16T13:52:48;4.90;65.60
80931;DHT22;70388;42.698;23.324;2024-01-16T13:55:14;5.00;65.80
80931;DHT22;70388;42.698;23.324;2024-01-16T13:57:40;5.10;65.30
80931;DHT22;70388;42.698;23.324;2024-01-16T14:00:08;5.20;64.70
80931;DHT22;70388;42.698;23.324;2024-01-16T14:02:48;5.20;64.30
80931;DHT22;70388;42.698;23.324;2024-01-16T14:05:18;5.10;64.40
80931;DHT22;70388;42.698;23.324;2024-01-16T14:07:45;4.90;65.00
80931;DHT22;70388;42.698;23.324;2024-01-16T14:10:13;4.80;65.10
80931;DHT22;70388;42.698;23.324;2024-01-16T14:12:39;4.60;65.10
80931;DHT22;70388;42.698;23.324;2024-01-16T14:15:12;4.50;65.10
80931;DHT22;70388;42.698;23.324;2024-01-16T14:17:54;4.30;65.20
80931;DHT22;70388;42.698;23.324;2024-01-16T14:20:22;4.30;66.00
80931;DHT22;70388;42.698;23.324;2024-01-16T14:22:50;4.30;66.10
80931;DHT22;70388;42.698;23.324;2024-01-16T14:25:16;4.30;66.30
80931;DHT22;70388;42.698;23.324;2024-01-16T14:27:47;4.20;66.50
80931;DHT22;70388;42.698;23.324;2024-01-16T14:30:15;4.20;66.50
80931;DHT22;70388;42.698;23.324;2024-01-16T14:32:43;4.30;66.30
80931;DHT22;70388;42.698;23.324;2024-01-16T14:35:10;4.30;65.50
80931;DHT22;70388;42.698;23.324;2024-01-16T14:37:37;4.20;65.60
80931;DHT22;70388;42.698;23.324;2024-01-16T14:40:05;4.20;65.80
80931;DHT22;70388;42.698;23.324;2024-01-16T14:42:44;4.20;65.70
80931;DHT22;70388;42.698;23.324;2024-01-16T14:45:10;4.20;65.60
80931;DHT22;70388;42.698;23.324;2024-01-16T14:47:38;4.30;65.60
80931;DHT22;70388;42.698;23.324;2024-01-16T14:50:06;4.30;65.40
80931;DHT22;70388;42.698;23.324;2024-01-16T14:52:34;4.50;64.40
80931;DHT22;70388;42.698;23.324;2024-01-16T14:55:03;4.60;64.30
80931;DHT22;70388;42.698;23.324;2024-01-16T14:57:38;4.70;63.90
80931;DHT22;70388;42.698;23.324;2024-01-16T15:00:18;4.70;64.20
80931;DHT22;70388;42.698;23.324;2024-01-16T15:02:53;4.70;64.30
80931;DHT22;70388;42.698;23.324;2024-01-16T15:05:20;4.70;64.40
80931;DHT22;70388;42.698;23.324;2024-01-16T15:07:47;4.60;64.80
80931;DHT22;70388;42.698;23.324;2024-01-16T15:10:12;4.60;65.40
80931;DHT22;70388;42.698;23.324;2024-01-16T15:12:41;4.50;65.60
80931;DHT22;70388;42.698;23.324;2024-01-16T15:15:08;4.50;65.80
80931;DHT22;70388;42.698;23.324;2024-01-16T15:17:36;4.40;66.40
80931;DHT22;70388;42.698;23.324;2024-01-16T15:20:02;4.40;66.30
80931;DHT22;70388;42.698;23.324;2024-01-16T15:22:29;4.40;66.70
80931;DHT22;70388;42.698;23.324;2024-01-16T15:24:57;4.30;66.80
80931;DHT22;70388;42.698;23.324;2024-01-16T15:27:23;4.40;66.90
80931;DHT22;70388;42.698;23.324;2024-01-16T15:29:49;4.50;66.80
80931;DHT22;70388;42.698;23.324;2024-01-16T15:32:15;4.50;66.80
80931;DHT22;70388;42.698;23.324;2024-01-16T15:34:41;4.50;66.60
80931;DHT22;70388;42.698;23.324;2024-01-16T15:37:07;4.40;66.80
80931;DHT22;70388;42.698;23.324;2024-01-16T15:39:33;4.30;67.50
80931;DHT22;70388;42.698;23.324;2024-01-16T15:41:58;4.20;67.90
80931;DHT22;70388;42.698;23.324;2024-01-16T15:44:24;4.20;67.80